createdAt,value
2022-11-13T00:01:29.356Z,23.20
2022-11-13T00:04:00.708Z,23.20
2022-11-13T00:06:29.811Z,23.20
2022-11-13T00:08:58.928Z,23.30
2022-11-13T00:11:28.012Z,23.30
2022-11-13T00:13:57.119Z,23.30
2022-11-13T00:16:26.188Z,23.40
2022-11-13T00:18:55.835Z,23.40
2022-11-13T00:21:30.294Z,23.50
2022-11-13T00:23:59.445Z,23.60
2022-11-13T00:26:32.202Z,23.60
2022-11-13T00:29:03.904Z,23.70
2022-11-13T00:31:33.142Z,23.80
2022-11-13T00:36:52.177Z,24.00
2022-11-13T00:39:21.828Z,24.10
2022-11-13T00:41:50.977Z,24.20
2022-11-13T00:44:20.358Z,24.30
2022-11-13T00:46:49.721Z,24.30
2022-11-13T00:49:18.865Z,24.40
2022-11-13T00:51:48.125Z,24.40
2022-11-13T00:54:17.286Z,24.50
2022-11-13T00:56:46.379Z,24.60
2022-11-13T00:59:15.448Z,24.70
2022-11-13T01:01:44.671Z,24.80
2022-11-13T01:04:13.865Z,24.80
2022-11-13T01:06:43.076Z,24.90
2022-11-13T01:09:12.284Z,25.00
2022-11-13T01:11:42.535Z,25.10
2022-11-13T01:14:11.856Z,25.20
2022-11-13T01:16:41.013Z,25.30
2022-11-13T01:19:10.262Z,25.30
2022-11-13T01:21:39.505Z,25.40
2022-11-13T01:24:08.773Z,25.50
2022-11-13T01:26:37.899Z,25.50
2022-11-13T01:29:11.448Z,25.60
2022-11-13T01:31:40.915Z,25.60
2022-11-13T01:34:10.391Z,25.70
2022-11-13T01:36:39.849Z,25.80
2022-11-13T01:39:11.758Z,25.80
2022-11-13T01:41:41.872Z,25.90
2022-11-13T01:44:17.076Z,26.00
2022-11-13T01:46:58.203Z,26.00
2022-11-13T01:49:39.224Z,26.10
2022-11-13T01:52:40.508Z,26.20
2022-11-13T01:55:20.574Z,26.20
2022-11-13T01:57:49.915Z,26.30
2022-11-13T02:00:19.281Z,26.30
2022-11-13T02:02:48.417Z,26.40
2022-11-13T02:05:17.776Z,26.40
2022-11-13T02:07:47.662Z,26.40
2022-11-13T02:10:17.131Z,26.40
2022-11-13T02:12:52.466Z,26.40
2022-11-13T02:15:26.642Z,26.40
2022-11-13T02:18:02.301Z,26.40
2022-11-13T02:21:01.573Z,26.50
2022-11-13T02:24:04.696Z,26.50
2022-11-13T02:26:35.114Z,26.50
2022-11-13T02:29:04.220Z,26.50
2022-11-13T02:31:33.393Z,26.60
2022-11-13T02:34:04.929Z,26.60
2022-11-13T02:36:35.810Z,26.60
2022-11-13T02:39:11.307Z,26.70
2022-11-13T02:41:40.576Z,26.80
2022-11-13T02:44:10.166Z,26.90
2022-11-13T02:46:39.553Z,27.00
2022-11-13T02:49:08.816Z,27.00
2022-11-13T02:51:37.985Z,27.10
2022-11-13T02:54:07.407Z,27.20
2022-11-13T02:56:36.587Z,27.20
2022-11-13T02:59:05.865Z,27.30
2022-11-13T03:01:35.108Z,27.40
2022-11-13T03:04:04.971Z,27.50
2022-11-13T03:06:34.900Z,27.70
2022-11-13T03:09:04.175Z,27.80
2022-11-13T03:11:33.275Z,27.90
2022-11-13T03:14:02.830Z,28.00
2022-11-13T03:16:32.023Z,28.10
2022-11-13T03:19:01.131Z,28.30
2022-11-13T03:21:30.326Z,28.40
2022-11-13T03:24:00.173Z,28.50
2022-11-13T03:26:29.383Z,28.60
2022-11-13T03:28:58.965Z,28.60
2022-11-13T03:31:28.169Z,28.70
2022-11-13T03:33:57.503Z,28.80
2022-11-13T03:36:27.584Z,28.80
2022-11-13T03:38:56.876Z,28.90
2022-11-13T03:41:26.039Z,29.00
2022-11-13T03:43:55.128Z,29.10
2022-11-13T03:46:24.455Z,29.10
2022-11-13T03:48:55.915Z,29.10
2022-11-13T03:51:25.081Z,29.10
2022-11-13T03:53:54.127Z,29.20
2022-11-13T03:56:23.992Z,29.20
2022-11-13T03:58:53.054Z,29.20
2022-11-13T04:01:22.130Z,29.30
2022-11-13T04:03:51.310Z,29.30
2022-11-13T04:06:20.538Z,29.40
2022-11-13T04:08:49.706Z,29.50
2022-11-13T04:11:18.905Z,29.60
2022-11-13T04:13:47.946Z,29.70
2022-11-13T04:16:17.086Z,29.80
2022-11-13T04:18:46.208Z,30.00
2022-11-13T04:21:15.277Z,30.10
2022-11-13T04:23:44.402Z,30.20
2022-11-13T04:26:13.438Z,30.40
2022-11-13T04:28:42.485Z,30.40
2022-11-13T04:31:11.603Z,30.50
2022-11-13T04:33:40.649Z,30.50
2022-11-13T04:36:10.329Z,30.60
2022-11-13T04:38:39.458Z,30.60
2022-11-13T04:41:27.479Z,30.50
2022-11-13T04:43:56.589Z,30.50
2022-11-13T04:46:25.670Z,30.50
2022-11-13T04:48:54.832Z,30.50
2022-11-13T04:51:24.064Z,30.60
2022-11-13T04:53:53.235Z,30.80
2022-11-13T04:56:24.460Z,30.90
2022-11-13T04:58:54.356Z,31.10
2022-11-13T05:01:23.634Z,31.20
2022-11-13T05:03:52.789Z,31.40
2022-11-13T05:06:23.302Z,31.40
2022-11-13T05:08:53.355Z,31.50
2022-11-13T05:11:22.414Z,31.40
2022-11-13T05:13:51.504Z,31.40
2022-11-13T05:16:20.665Z,31.30
2022-11-13T05:18:50.025Z,31.30
2022-11-13T05:21:19.288Z,31.10
2022-11-13T05:23:48.371Z,31.00
2022-11-13T05:26:18.212Z,31.00
2022-11-13T05:28:47.279Z,30.90
2022-11-13T05:31:17.823Z,30.90
2022-11-13T05:33:46.988Z,30.90
2022-11-13T05:36:19.303Z,31.00
2022-11-13T05:38:48.965Z,31.00
2022-11-13T05:41:22.360Z,31.10
2022-11-13T05:43:56.549Z,31.20
2022-11-13T05:46:30.739Z,31.20
2022-11-13T05:49:02.857Z,31.20
2022-11-13T05:51:36.329Z,31.20
2022-11-13T05:54:07.214Z,31.20
2022-11-13T05:56:38.749Z,31.20
2022-11-13T05:59:08.578Z,31.20
2022-11-13T06:01:42.568Z,31.30
2022-11-13T06:04:12.509Z,31.40
2022-11-13T06:06:41.779Z,31.50
2022-11-13T06:09:15.573Z,31.60
2022-11-13T06:11:45.121Z,31.70
2022-11-13T06:14:14.304Z,31.80
2022-11-13T06:16:43.580Z,31.80
2022-11-13T06:19:13.260Z,31.90
2022-11-13T06:21:43.878Z,31.90
2022-11-13T06:24:14.782Z,32.00
2022-11-13T06:26:44.154Z,32.10
2022-11-13T06:29:14.621Z,32.10
2022-11-13T06:31:44.064Z,32.10
2022-11-13T06:34:13.231Z,32.20
2022-11-13T06:36:43.673Z,32.20
2022-11-13T06:39:14.664Z,32.30
2022-11-13T06:41:43.869Z,32.40
2022-11-13T06:44:13.052Z,32.40
2022-11-13T06:46:42.184Z,32.50
2022-11-13T06:49:11.331Z,32.50
2022-11-13T06:51:40.578Z,32.50
2022-11-13T06:54:09.791Z,32.50
2022-11-13T06:56:44.737Z,32.50
2022-11-13T06:59:14.166Z,32.50
2022-11-13T07:01:43.289Z,32.60
2022-11-13T07:04:15.149Z,32.70
2022-11-13T07:06:44.592Z,32.70
2022-11-13T07:09:13.889Z,32.80
2022-11-13T07:11:43.018Z,33.00
2022-11-13T07:14:14.037Z,33.10
2022-11-13T07:17:08.019Z,33.10
2022-11-13T07:19:34.055Z,33.20
2022-11-13T07:22:03.253Z,33.20
2022-11-13T07:24:32.363Z,33.10
2022-11-13T07:27:01.476Z,33.10
2022-11-13T07:29:30.640Z,33.10
2022-11-13T07:31:59.734Z,33.10
2022-11-13T07:34:28.986Z,33.10
2022-11-13T07:36:58.182Z,33.10
2022-11-13T07:39:27.291Z,33.10
2022-11-13T07:41:56.447Z,33.10
2022-11-13T07:44:52.812Z,33.10
2022-11-13T07:47:14.798Z,33.20
2022-11-13T07:49:44.056Z,33.20
2022-11-13T07:52:13.256Z,33.30
2022-11-13T07:54:42.606Z,33.30
2022-11-13T07:57:11.802Z,33.40
2022-11-13T07:59:41.159Z,33.40
2022-11-13T08:02:19.296Z,33.50
2022-11-13T08:04:50.342Z,33.50
2022-11-13T08:07:19.692Z,33.50
2022-11-13T08:09:48.890Z,33.50
2022-11-13T08:12:18.092Z,33.50
2022-11-13T08:14:47.225Z,33.50
2022-11-13T08:17:16.690Z,33.40
2022-11-13T08:19:45.880Z,33.40
2022-11-13T08:22:15.026Z,33.40
2022-11-13T08:24:44.174Z,33.40
2022-11-13T08:27:13.395Z,33.40
2022-11-13T08:29:42.507Z,33.50
2022-11-13T08:32:11.607Z,33.50
2022-11-13T08:34:40.836Z,33.40
2022-11-13T08:37:11.549Z,33.40
2022-11-13T08:39:40.719Z,33.40
2022-11-13T08:42:09.924Z,33.30
2022-11-13T08:44:39.007Z,33.30
2022-11-13T08:47:08.209Z,33.20
2022-11-13T08:49:37.294Z,33.10
2022-11-13T08:52:06.651Z,33.10
2022-11-13T08:54:35.711Z,33.00
2022-11-13T08:57:06.067Z,32.90
2022-11-13T08:59:35.355Z,32.80
2022-11-13T09:02:04.657Z,32.70
2022-11-13T09:04:36.653Z,32.60
2022-11-13T09:07:05.942Z,32.50
2022-11-13T09:09:35.549Z,32.50
2022-11-13T09:12:05.028Z,32.40
2022-11-13T09:14:34.192Z,32.30
2022-11-13T09:17:03.328Z,32.20
2022-11-13T09:19:32.422Z,32.10
2022-11-13T09:22:01.564Z,32.10
2022-11-13T09:24:30.733Z,32.10
2022-11-13T09:26:59.848Z,32.10
2022-11-13T09:29:29.638Z,31.90
2022-11-13T09:31:58.969Z,31.90
2022-11-13T09:34:28.971Z,31.90
2022-11-13T09:37:00.026Z,31.80
2022-11-13T09:39:29.591Z,31.80
2022-11-13T09:42:19.302Z,31.70
2022-11-13T09:45:20.660Z,31.70
2022-11-13T09:47:53.726Z,31.60
2022-11-13T09:50:30.428Z,31.60
2022-11-13T09:52:59.873Z,31.60
2022-11-13T09:55:43.014Z,31.50
2022-11-13T09:58:53.229Z,31.50
2022-11-13T10:01:38.316Z,31.40
2022-11-13T10:04:15.295Z,31.40
2022-11-13T10:07:01.439Z,31.30
2022-11-13T10:10:17.968Z,31.20
2022-11-13T10:12:53.213Z,31.10
2022-11-13T10:15:22.605Z,31.00
2022-11-13T10:18:18.562Z,30.90
2022-11-13T10:21:17.877Z,30.90
2022-11-13T10:23:58.215Z,30.80
2022-11-13T10:26:30.653Z,30.80
2022-11-13T10:29:15.769Z,30.70
2022-11-13T10:31:52.140Z,30.60
2022-11-13T10:34:22.066Z,30.60
2022-11-13T10:37:19.547Z,30.50
2022-11-13T10:39:49.003Z,30.40
2022-11-13T10:42:30.610Z,30.30
2022-11-13T10:45:04.371Z,30.30
2022-11-13T10:48:02.694Z,30.20
2022-11-13T10:50:31.812Z,30.20
2022-11-13T10:53:01.473Z,30.10
2022-11-13T10:55:39.142Z,30.00
2022-11-13T10:58:20.723Z,30.00
2022-11-13T11:00:50.785Z,29.90
2022-11-13T11:03:26.748Z,29.80
2022-11-13T11:06:03.152Z,29.70
2022-11-13T11:08:36.418Z,29.60
2022-11-13T11:11:35.294Z,29.40
2022-11-13T11:14:13.630Z,29.30
2022-11-13T11:16:43.807Z,29.20
2022-11-13T11:19:16.793Z,29.10
2022-11-13T11:21:48.336Z,29.00
2022-11-13T11:24:29.495Z,28.90
2022-11-13T11:27:27.645Z,28.80
2022-11-13T11:30:08.545Z,28.80
2022-11-13T11:32:52.731Z,28.80
2022-11-13T11:35:34.808Z,28.70
2022-11-13T11:38:23.871Z,28.60
2022-11-13T11:41:04.349Z,28.60
2022-11-13T11:44:03.954Z,28.50
2022-11-13T11:46:33.275Z,28.40
2022-11-13T11:49:04.142Z,28.40
2022-11-13T11:51:55.251Z,28.40
2022-11-13T11:54:47.569Z,28.30
2022-11-13T11:58:19.659Z,28.30
2022-11-13T12:01:38.615Z,28.20
2022-11-13T12:04:46.066Z,28.20
2022-11-13T12:07:48.071Z,28.20
2022-11-13T12:10:30.180Z,28.10
2022-11-13T12:13:21.620Z,28.10
2022-11-13T12:16:25.059Z,28.00
2022-11-13T12:19:05.309Z,28.00
2022-11-13T12:21:55.147Z,28.00
2022-11-13T12:24:38.558Z,27.90
2022-11-13T12:27:33.152Z,27.90
2022-11-13T12:30:18.369Z,27.90
2022-11-13T12:33:17.125Z,27.80
2022-11-13T12:35:52.516Z,27.80
2022-11-13T12:38:38.755Z,27.80
2022-11-13T12:41:29.619Z,27.80
2022-11-13T12:44:30.428Z,27.70
2022-11-13T12:47:03.019Z,27.70
2022-11-13T12:49:36.430Z,27.70
2022-11-13T12:52:25.408Z,27.70
2022-11-13T12:55:30.441Z,27.70
2022-11-13T12:58:23.398Z,27.70
2022-11-13T13:01:22.096Z,27.70
2022-11-13T13:04:21.592Z,27.70
2022-11-13T13:07:12.106Z,27.60
2022-11-13T13:10:24.312Z,27.60
2022-11-13T13:13:40.921Z,27.60
2022-11-13T13:16:11.840Z,27.60
2022-11-13T13:18:42.178Z,27.60
2022-11-13T13:21:18.614Z,27.60
2022-11-13T13:23:54.419Z,27.60
2022-11-13T13:26:31.663Z,27.50
2022-11-13T13:29:27.488Z,27.50
2022-11-13T13:32:00.784Z,27.50
2022-11-13T13:35:23.005Z,27.50
2022-11-13T13:38:33.600Z,27.50
2022-11-13T13:41:36.640Z,27.50
2022-11-13T13:44:39.258Z,27.50
2022-11-13T13:47:25.596Z,27.50
2022-11-13T13:49:56.280Z,27.40
2022-11-13T13:52:34.547Z,27.40
2022-11-13T13:55:08.572Z,27.40
2022-11-13T13:57:43.600Z,27.40
2022-11-13T14:00:15.600Z,27.40
2022-11-13T14:02:53.211Z,27.40
2022-11-13T14:05:39.171Z,27.40
2022-11-13T14:08:24.427Z,27.30
2022-11-13T14:10:54.385Z,27.30
2022-11-13T14:13:30.372Z,27.30
2022-11-13T14:16:06.352Z,27.20
2022-11-13T14:18:37.399Z,27.20
2022-11-13T14:21:26.021Z,27.20
2022-11-13T14:23:58.495Z,27.20
2022-11-13T14:26:27.746Z,27.20
2022-11-13T14:29:09.936Z,27.20
2022-11-13T14:31:39.184Z,27.10
2022-11-13T14:34:19.519Z,27.10
2022-11-13T14:36:50.084Z,27.10
2022-11-13T14:39:36.011Z,27.10
2022-11-13T14:42:05.549Z,27.10
2022-11-13T14:44:36.758Z,27.00
2022-11-13T14:47:23.702Z,27.00
2022-11-13T14:49:52.920Z,27.00
2022-11-13T14:52:30.399Z,27.00
2022-11-13T14:55:15.178Z,27.00
2022-11-13T14:57:51.745Z,26.90
2022-11-13T15:00:30.377Z,26.90
2022-11-13T15:03:01.043Z,26.90
2022-11-13T15:05:30.572Z,26.90
2022-11-13T15:08:00.966Z,26.90
2022-11-13T15:10:32.797Z,26.90
2022-11-13T15:13:02.176Z,26.90
2022-11-13T15:15:31.910Z,26.90
2022-11-13T15:18:03.476Z,26.90
2022-11-13T15:20:33.260Z,26.80
2022-11-13T15:23:03.065Z,26.80
2022-11-13T15:25:32.209Z,26.80
2022-11-13T15:28:01.415Z,26.80
2022-11-13T15:30:30.543Z,26.80
2022-11-13T15:33:00.346Z,26.70
2022-11-13T15:35:29.571Z,26.70
2022-11-13T15:37:59.602Z,26.80
2022-11-13T15:40:28.628Z,26.70
2022-11-13T15:42:59.971Z,26.70
2022-11-13T15:45:29.247Z,26.70
2022-11-13T15:47:58.324Z,26.70
2022-11-13T15:50:27.485Z,26.70
2022-11-13T15:53:00.988Z,26.60
2022-11-13T15:55:34.540Z,26.60
2022-11-13T15:58:04.691Z,26.60
2022-11-13T16:00:34.678Z,26.60
2022-11-13T16:03:05.591Z,26.60
2022-11-13T16:05:36.764Z,26.60
2022-11-13T16:08:17.133Z,26.60
2022-11-13T16:10:46.228Z,26.60
2022-11-13T16:13:15.284Z,26.60
2022-11-13T16:15:44.601Z,26.60
2022-11-13T16:18:27.631Z,26.70
2022-11-13T16:20:56.989Z,26.60
2022-11-13T16:23:27.060Z,26.60
2022-11-13T16:25:56.548Z,26.60
2022-11-13T16:28:26.839Z,26.60
2022-11-13T16:30:56.320Z,26.60
2022-11-13T16:33:25.431Z,26.60
2022-11-13T16:35:55.944Z,26.60
2022-11-13T16:38:25.013Z,26.50
2022-11-13T16:40:54.062Z,26.50
2022-11-13T16:43:23.165Z,26.50
2022-11-13T16:45:54.285Z,26.50
2022-11-13T16:48:23.345Z,26.60
2022-11-13T16:50:52.405Z,26.60
2022-11-13T16:53:22.724Z,26.60
2022-11-13T16:55:51.730Z,26.60
2022-11-13T16:58:20.948Z,26.60
2022-11-13T17:00:49.967Z,26.60
2022-11-13T17:03:19.020Z,26.60
2022-11-13T17:05:52.256Z,26.60
2022-11-13T17:08:22.883Z,26.60
2022-11-13T17:11:01.275Z,26.60
2022-11-13T17:13:30.268Z,26.60
2022-11-13T17:16:03.050Z,26.60
2022-11-13T17:18:32.150Z,26.60
2022-11-13T17:21:02.078Z,26.60
2022-11-13T17:23:31.353Z,26.60
2022-11-13T17:26:00.645Z,26.60
2022-11-13T17:28:30.034Z,26.60
2022-11-13T17:31:12.972Z,26.60
2022-11-13T17:33:43.638Z,26.60
2022-11-13T17:36:13.080Z,26.50
2022-11-13T17:38:42.281Z,26.50
2022-11-13T17:41:14.504Z,26.50
2022-11-13T17:43:44.293Z,26.50
2022-11-13T17:46:17.703Z,26.50
2022-11-13T17:48:48.987Z,26.50
2022-11-13T17:51:19.167Z,26.50
2022-11-13T17:53:48.275Z,26.50
2022-11-13T17:56:17.344Z,26.50
2022-11-13T17:58:47.662Z,26.50
2022-11-13T18:01:22.616Z,26.50
2022-11-13T18:03:57.785Z,26.50
2022-11-13T18:06:27.512Z,26.50
2022-11-13T18:08:56.741Z,26.50
2022-11-13T18:11:31.483Z,26.40
2022-11-13T18:14:00.622Z,26.40
2022-11-13T18:16:38.387Z,26.40
2022-11-13T18:19:10.203Z,26.40
2022-11-13T18:21:40.743Z,26.40
2022-11-13T18:24:18.416Z,26.40
2022-11-13T18:26:48.068Z,26.40
2022-11-13T18:29:17.206Z,26.40
2022-11-13T18:31:46.503Z,26.40
2022-11-13T18:34:18.351Z,26.40
2022-11-13T18:36:48.288Z,26.40
2022-11-13T18:39:17.539Z,26.40
2022-11-13T18:41:46.683Z,26.40
2022-11-13T18:44:15.915Z,26.30
2022-11-13T18:46:45.202Z,26.30
2022-11-13T18:49:14.333Z,26.30
2022-11-13T18:51:44.831Z,26.30
2022-11-13T18:54:14.162Z,26.30
2022-11-13T18:56:43.879Z,26.30
2022-11-13T18:59:13.085Z,26.30
2022-11-13T19:01:43.135Z,26.30
2022-11-13T19:04:28.159Z,26.30
2022-11-13T19:06:58.268Z,26.30
2022-11-13T19:09:27.702Z,26.30
2022-11-13T19:11:56.909Z,26.30
2022-11-13T19:14:26.037Z,26.30
2022-11-13T19:16:55.162Z,26.20
2022-11-13T19:19:25.409Z,26.20
2022-11-13T19:21:54.607Z,26.20
2022-11-13T19:24:23.797Z,26.10
2022-11-13T19:26:53.021Z,26.10
2022-11-13T19:29:22.267Z,26.10
2022-11-13T19:31:54.602Z,26.10
2022-11-13T19:34:23.780Z,26.10
2022-11-13T19:36:55.368Z,26.20
2022-11-13T19:39:24.811Z,26.20
2022-11-13T19:41:54.020Z,26.20
2022-11-13T19:44:23.290Z,26.20
2022-11-13T19:46:52.493Z,26.20
2022-11-13T19:49:21.714Z,26.20
2022-11-13T19:51:51.030Z,26.20
2022-11-13T19:54:20.235Z,26.20
2022-11-13T19:56:49.520Z,26.20
2022-11-13T19:59:18.722Z,26.10
2022-11-13T20:01:47.940Z,26.10
2022-11-13T20:04:17.132Z,26.00
2022-11-13T20:06:46.324Z,26.00
2022-11-13T20:09:15.503Z,26.00
2022-11-13T20:11:46.079Z,26.00
2022-11-13T20:14:15.546Z,26.00
2022-11-13T20:16:44.694Z,26.00
2022-11-13T20:19:13.815Z,26.00
2022-11-13T20:21:43.013Z,25.90
2022-11-13T20:24:12.495Z,25.90
2022-11-13T20:26:41.617Z,26.00
2022-11-13T20:29:10.765Z,26.00
2022-11-13T20:31:39.917Z,25.90
2022-11-13T20:34:09.988Z,25.90
2022-11-13T20:36:40.028Z,26.00
2022-11-13T20:39:10.579Z,26.00
2022-11-13T20:41:39.813Z,26.00
2022-11-13T20:44:09.046Z,26.00
2022-11-13T20:46:38.280Z,26.00
2022-11-13T20:49:07.459Z,25.90
2022-11-13T20:51:36.696Z,25.90
2022-11-13T20:54:06.034Z,26.00
2022-11-13T20:56:35.201Z,25.90
2022-11-13T20:59:05.047Z,25.90
2022-11-13T21:01:37.527Z,25.90
2022-11-13T21:04:06.879Z,25.90
2022-11-13T21:06:36.053Z,25.90
2022-11-13T21:09:06.561Z,25.90
2022-11-13T21:11:35.808Z,25.90
2022-11-13T21:14:05.115Z,25.90
2022-11-13T21:16:34.320Z,25.90
2022-11-13T21:19:03.515Z,25.80
2022-11-13T21:21:32.780Z,25.80
2022-11-13T21:24:02.002Z,25.80
2022-11-13T21:26:31.201Z,25.80
2022-11-13T21:29:03.945Z,25.80
2022-11-13T21:31:33.096Z,25.80
2022-11-13T21:34:02.264Z,25.80
2022-11-13T21:36:31.578Z,25.80
2022-11-13T21:39:01.206Z,25.80
2022-11-13T21:41:30.268Z,25.80
2022-11-13T21:44:05.906Z,25.80
2022-11-13T21:46:40.173Z,25.80
2022-11-13T21:49:13.203Z,25.80
2022-11-13T21:51:44.372Z,25.70
2022-11-13T21:54:13.523Z,25.70
2022-11-13T21:56:43.147Z,25.70
2022-11-13T21:59:12.265Z,25.70
2022-11-13T22:01:41.395Z,25.80
2022-11-13T22:04:10.471Z,25.70
2022-11-13T22:06:42.452Z,25.70
2022-11-13T22:09:19.050Z,25.80
2022-11-13T22:11:48.310Z,25.70
2022-11-13T22:14:17.501Z,25.70
2022-11-13T22:16:49.061Z,25.70
2022-11-13T22:19:26.528Z,25.70
2022-11-13T22:21:56.908Z,25.70
2022-11-13T22:24:26.013Z,25.70
2022-11-13T22:26:55.054Z,25.70
2022-11-13T22:29:24.135Z,25.80
2022-11-13T22:31:53.170Z,25.70
2022-11-13T22:34:22.311Z,25.80
2022-11-13T22:36:51.763Z,25.80
2022-11-13T22:39:20.925Z,25.80
2022-11-13T22:41:49.944Z,25.80
2022-11-13T22:44:18.993Z,25.80
2022-11-13T22:46:48.170Z,25.80
2022-11-13T22:49:17.264Z,25.80
2022-11-13T22:51:46.336Z,25.70
2022-11-13T22:54:15.430Z,25.70
2022-11-13T22:56:44.583Z,25.70
2022-11-13T22:59:14.952Z,25.70
2022-11-13T23:01:44.665Z,25.70
2022-11-13T23:04:15.458Z,25.70
2022-11-13T23:06:44.645Z,25.60
2022-11-13T23:09:13.780Z,25.60
2022-11-13T23:11:44.912Z,25.60
2022-11-13T23:14:18.422Z,25.60
2022-11-13T23:16:47.553Z,25.60
2022-11-13T23:19:16.583Z,25.60
2022-11-13T23:21:48.156Z,25.60
2022-11-13T23:24:17.176Z,25.60
2022-11-13T23:26:46.299Z,25.60
2022-11-13T23:29:15.653Z,25.50
2022-11-13T23:31:44.698Z,25.50
2022-11-13T23:34:16.602Z,25.60
2022-11-13T23:36:56.181Z,25.50
2022-11-13T23:39:25.210Z,25.60
2022-11-13T23:41:54.239Z,25.60
2022-11-13T23:44:23.295Z,25.60
2022-11-13T23:46:52.357Z,25.60
2022-11-13T23:49:21.443Z,25.60
2022-11-13T23:51:50.561Z,25.60
2022-11-13T23:54:19.625Z,25.60
2022-11-13T23:56:48.658Z,25.60
2022-11-13T23:59:17.805Z,25.60
